Terminal Aerodrome Forecast
Issued by NWS Memphis, TN

Home | Current Version | Previous Version | Text Only | Print | Product List | Glossary On
Versions: 1 2 3 4 5 6 7 8 9 10 11 12 13 14 15
045
FTUS44 KMEG 200817 AAA
TAFMKL
TAF AMD
KMKL 200817Z 2008/2106 19004KT P6SM FEW250
      TEMPO 2010/2012 4SM BR
     FM201600 21005KT P6SM FEW040 SCT250
     FM210000 18003KT P6SM FEW250=

USA.gov is the U.S. government's official web portal to all federal, state and local government web resources and services.